Terminal Aerodrome Forecast
Issued by NWS Wichita, KS

Home | Current Version | Previous Version | Text Only | Print | Product List | Glossary Off
Versions: 1 2 3 4 5 6 7 8 9 10 11 12 13 14 15 16 17 18 19 20 21 22 23 24 25

000
FTUS43 KICT 280520
TAFICT
TAF
KICT 280520Z 2806/2906 15010KT P6SM SCT035 BKN120
     FM280800 15008KT P6SM VCTS BKN035CB
      TEMPO 2808/2811 2SM -TSRA
     FM281100 15010KT P6SM -TSRA BKN035CB
     FM281700 18015G22KT P6SM BKN120
     FM290300 16010KT P6SM BKN025=

USA.gov is the U.S. government's official web portal to all federal, state and local government web resources and services.